Time;durP1;ratioP1;P1;durP2;ratioP2;P2;SDS_P1;SDS_P2;PMS_P1;PMS_P2;Temp;Humidity;BMP_temperature;BMP_pressure;BME280_temperature;BME280_humidity;BME280_pressure;Samples;Min_cycle;Max_cycle;Signal;HPM_P1;HPM_P2
2023/07/26 00:00:31;;;;;;;;;;;16.30;68.00;;;;;;5113097;28;19927;-30
2023/07/26 00:02:56;;;;;;;;;;;16.30;68.00;;;;;;5113358;28;19954;-32
2023/07/26 00:05:22;;;;;;;;;;;16.30;68.10;;;;;;5112803;28;19969;-29
2023/07/26 00:07:47;;;;;;;;;;;16.30;68.20;;;;;;5113244;28;19908;-29
2023/07/26 00:10:13;;;;;;;;;;;16.20;68.20;;;;;;5113155;28;19915;-29
2023/07/26 00:12:38;;;;;;;;;;;16.20;68.30;;;;;;5112791;28;19918;-30
2023/07/26 00:15:04;;;;;;;;;;;16.30;68.50;;;;;;5113063;28;19908;-29
2023/07/26 00:17:29;;;;;;;;;;;16.30;68.50;;;;;;5112980;28;20360;-29
2023/07/26 00:19:55;;;;;;;;;;;16.20;68.60;;;;;;5112669;28;20403;-31
2023/07/26 00:22:20;;;;;;;;;;;16.20;68.70;;;;;;5113129;28;19912;-30
2023/07/26 00:24:46;;;;;;;;;;;16.20;68.70;;;;;;5112859;28;20375;-29
2023/07/26 00:27:14;;;;;;;;;;;16.20;68.80;;;;;;5112527;28;20010;-35
2023/07/26 00:29:39;;;;;;;;;;;16.20;68.80;;;;;;5094513;28;19916;-30
2023/07/26 00:32:05;;;;;;;;;;;16.20;68.80;;;;;;5112587;28;19973;-31
2023/07/26 00:34:30;;;;;;;;;;;16.20;68.90;;;;;;5112833;28;19976;-31
2023/07/26 00:36:56;;;;;;;;;;;16.20;68.90;;;;;;5112544;28;19908;-30
2023/07/26 00:39:21;;;;;;;;;;;16.20;68.90;;;;;;5112361;28;19908;-29
2023/07/26 00:41:47;;;;;;;;;;;16.30;69.00;;;;;;5112402;28;19908;-30
2023/07/26 00:44:12;;;;;;;;;;;16.20;69.00;;;;;;5112333;28;20303;-30
2023/07/26 00:46:38;;;;;;;;;;;16.30;69.10;;;;;;5112740;28;19912;-31
2023/07/26 00:49:04;;;;;;;;;;;16.30;69.10;;;;;;5094266;28;20287;-30
2023/07/26 00:51:30;;;;;;;;;;;16.30;69.20;;;;;;5112627;28;19914;-30
2023/07/26 00:53:55;;;;;;;;;;;16.30;69.30;;;;;;5112275;28;20354;-31
2023/07/26 00:56:21;;;;;;;;;;;16.30;69.40;;;;;;5112733;28;19919;-30
2023/07/26 00:58:47;;;;;;;;;;;16.20;69.40;;;;;;5116610;28;19908;-30
2023/07/26 01:01:13;;;;;;;;;;;16.20;69.60;;;;;;5116766;28;19973;-30
2023/07/26 01:03:38;;;;;;;;;;;16.20;69.70;;;;;;5116368;28;20371;-30
2023/07/26 01:06:09;;;;;;;;;;;16.10;69.70;;;;;;5097958;28;19916;-28
2023/07/26 01:08:47;;;;;;;;;;;16.10;69.80;;;;;;5116231;28;19908;-32
2023/07/26 01:11:16;;;;;;;;;;;16.10;69.90;;;;;;5116638;28;19915;-31
2023/07/26 01:13:42;;;;;;;;;;;16.00;70.00;;;;;;5116458;28;19907;-28
2023/07/26 01:16:08;;;;;;;;;;;15.90;70.00;;;;;;5116383;28;19999;-29
2023/07/26 01:18:33;;;;;;;;;;;15.90;70.20;;;;;;5116349;28;19908;-32
2023/07/26 01:21:02;;;;;;;;;;;15.80;70.20;;;;;;5116186;28;19955;-31
2023/07/26 01:23:27;;;;;;;;;;;15.80;70.40;;;;;;5116269;28;19908;-31
2023/07/26 01:25:53;;;;;;;;;;;15.80;70.50;;;;;;5115951;28;19919;-31
2023/07/26 01:28:18;;;;;;;;;;;15.70;70.50;;;;;;5116402;28;20271;-29
2023/07/26 01:30:45;;;;;;;;;;;15.70;70.60;;;;;;5115815;28;20235;-28
2023/07/26 01:33:11;;;;;;;;;;;15.70;70.70;;;;;;5115793;28;19912;-30
2023/07/26 01:35:38;;;;;;;;;;;15.60;70.70;;;;;;5116050;28;19907;-29
2023/07/26 01:38:03;;;;;;;;;;;15.60;70.80;;;;;;5115838;28;19961;-31
2023/07/26 01:40:29;;;;;;;;;;;15.50;70.80;;;;;;5115610;28;20307;-29
2023/07/26 01:42:55;;;;;;;;;;;15.60;70.90;;;;;;5116049;28;19954;-31
2023/07/26 01:45:21;;;;;;;;;;;15.50;71.00;;;;;;5115882;28;19911;-29
2023/07/26 01:47:46;;;;;;;;;;;15.50;71.00;;;;;;5115556;28;19918;-29
2023/07/26 01:50:12;;;;;;;;;;;15.40;71.00;;;;;;5115797;28;20350;-30
2023/07/26 01:52:37;;;;;;;;;;;15.40;71.00;;;;;;5115364;28;19998;-30
2023/07/26 01:55:03;;;;;;;;;;;15.40;71.10;;;;;;5115370;28;20003;-29
2023/07/26 01:57:28;;;;;;;;;;;15.40;71.10;;;;;;5115290;28;19908;-30
2023/07/26 01:59:54;;;;;;;;;;;15.30;71.10;;;;;;5115442;28;20460;-31
2023/07/26 02:02:20;;;;;;;;;;;15.30;71.20;;;;;;5096920;28;19908;-30
2023/07/26 02:04:46;;;;;;;;;;;15.30;71.30;;;;;;5115175;28;19908;-30
2023/07/26 02:07:11;;;;;;;;;;;15.20;71.30;;;;;;5115306;28;20386;-29
2023/07/26 02:09:37;;;;;;;;;;;15.30;71.40;;;;;;5114319;28;19908;-32
2023/07/26 02:12:02;;;;;;;;;;;15.20;71.50;;;;;;5115438;28;19914;-29
2023/07/26 02:14:28;;;;;;;;;;;15.20;71.60;;;;;;5115178;28;19998;-30
2023/07/26 02:16:53;;;;;;;;;;;15.10;71.60;;;;;;5115260;28;20275;-30
2023/07/26 02:19:19;;;;;;;;;;;15.10;71.70;;;;;;5115160;28;19915;-29
2023/07/26 02:21:44;;;;;;;;;;;15.10;71.80;;;;;;5115090;28;19915;-28
2023/07/26 02:24:10;;;;;;;;;;;15.00;71.80;;;;;;5114755;28;20329;-29
2023/07/26 02:26:35;;;;;;;;;;;15.00;71.90;;;;;;5114757;28;19965;-30
2023/07/26 02:29:01;;;;;;;;;;;15.00;72.00;;;;;;5114639;28;19908;-31
2023/07/26 02:31:27;;;;;;;;;;;14.90;72.00;;;;;;5114875;28;19908;-37
2023/07/26 02:33:52;;;;;;;;;;;15.00;72.10;;;;;;5114688;28;20418;-31
2023/07/26 02:36:18;;;;;;;;;;;14.90;72.10;;;;;;5114630;28;19947;-29
2023/07/26 02:38:43;;;;;;;;;;;14.90;72.10;;;;;;5114859;28;19908;-33
2023/07/26 02:41:09;;;;;;;;;;;14.90;72.20;;;;;;5114780;28;19907;-30
2023/07/26 02:43:34;;;;;;;;;;;14.80;72.30;;;;;;5114526;28;19915;-31
2023/07/26 02:46:00;;;;;;;;;;;14.80;72.30;;;;;;5114363;28;20036;-29
2023/07/26 02:48:25;;;;;;;;;;;14.80;72.50;;;;;;5114133;28;19919;-30
2023/07/26 02:50:50;;;;;;;;;;;14.70;72.50;;;;;;5113516;28;19934;-30
2023/07/26 02:53:16;;;;;;;;;;;14.70;72.60;;;;;;5112724;28;20363;-30
2023/07/26 02:55:42;;;;;;;;;;;14.70;72.60;;;;;;5112791;28;19954;-31
2023/07/26 02:58:08;;;;;;;;;;;14.70;72.70;;;;;;5114340;28;19957;-30
2023/07/26 03:00:33;;;;;;;;;;;14.70;72.70;;;;;;5114082;28;19908;-30
2023/07/26 03:02:59;;;;;;;;;;;14.60;72.70;;;;;;5114371;28;19908;-30
2023/07/26 03:05:25;;;;;;;;;;;14.60;72.80;;;;;;5114082;28;19908;-29
2023/07/26 03:07:50;;;;;;;;;;;14.60;72.90;;;;;;5114229;28;19920;-31
2023/07/26 03:10:17;;;;;;;;;;;14.60;72.90;;;;;;5113901;28;19912;-29
2023/07/26 03:12:42;;;;;;;;;;;14.60;73.00;;;;;;5113784;28;19908;-29
2023/07/26 03:15:09;;;;;;;;;;;14.50;73.10;;;;;;5114022;28;19940;-31
2023/07/26 03:17:34;;;;;;;;;;;14.50;73.20;;;;;;5113850;28;19925;-30
2023/07/26 03:20:00;;;;;;;;;;;14.50;73.30;;;;;;5113674;28;19908;-30
2023/07/26 03:22:25;;;;;;;;;;;14.50;73.30;;;;;;5113720;28;19907;-29
2023/07/26 03:24:51;;;;;;;;;;;14.40;73.40;;;;;;5113595;28;20363;-29
2023/07/26 03:27:16;;;;;;;;;;;14.40;73.50;;;;;;5113770;28;19954;-31
2023/07/26 03:29:42;;;;;;;;;;;14.40;73.50;;;;;;5113703;28;19907;-29
2023/07/26 03:32:07;;;;;;;;;;;14.40;73.60;;;;;;5113568;28;20011;-30
2023/07/26 03:34:33;;;;;;;;;;;14.40;73.70;;;;;;5113501;28;20317;-29
2023/07/26 03:36:58;;;;;;;;;;;14.30;73.70;;;;;;5113833;28;19907;-30
2023/07/26 03:39:24;;;;;;;;;;;14.30;73.80;;;;;;5113674;28;20266;-30
2023/07/26 03:41:49;;;;;;;;;;;14.30;73.90;;;;;;5113488;28;19952;-30
2023/07/26 03:44:15;;;;;;;;;;;14.30;73.90;;;;;;5113695;28;20274;-30
2023/07/26 03:46:40;;;;;;;;;;;14.30;74.00;;;;;;5113442;28;20320;-31
2023/07/26 03:49:06;;;;;;;;;;;14.30;74.00;;;;;;5113114;28;19920;-31
2023/07/26 03:51:31;;;;;;;;;;;14.30;74.00;;;;;;5113461;28;19914;-29
2023/07/26 03:53:57;;;;;;;;;;;14.30;74.00;;;;;;5113032;28;19907;-31
2023/07/26 03:56:22;;;;;;;;;;;14.30;74.10;;;;;;5113027;28;19990;-34
2023/07/26 03:58:48;;;;;;;;;;;14.20;74.10;;;;;;5112967;28;19929;-32
2023/07/26 04:01:13;;;;;;;;;;;14.20;74.10;;;;;;5113233;28;19907;-31
2023/07/26 04:03:39;;;;;;;;;;;14.30;74.20;;;;;;5112962;28;20279;-33
2023/07/26 04:06:05;;;;;;;;;;;14.20;74.20;;;;;;5113335;28;20000;-29
2023/07/26 04:08:30;;;;;;;;;;;14.20;74.20;;;;;;5112909;28;19933;-37
2023/07/26 04:10:55;;;;;;;;;;;14.20;74.30;;;;;;5112935;28;19908;-32
2023/07/26 04:13:21;;;;;;;;;;;14.30;74.40;;;;;;5112793;28;20252;-34
2023/07/26 04:15:47;;;;;;;;;;;14.30;74.40;;;;;;5112728;28;19915;-31
2023/07/26 04:18:13;;;;;;;;;;;14.30;74.40;;;;;;5112720;28;19961;-28
2023/07/26 04:20:38;;;;;;;;;;;14.30;74.40;;;;;;5112911;28;19912;-31
2023/07/26 04:23:04;;;;;;;;;;;14.30;74.40;;;;;;5112822;28;19973;-29
2023/07/26 04:25:29;;;;;;;;;;;14.40;74.40;;;;;;5094385;28;19908;-31
2023/07/26 04:27:55;;;;;;;;;;;14.40;74.30;;;;;;5112677;28;19911;-34
2023/07/26 04:30:20;;;;;;;;;;;14.40;74.30;;;;;;5112523;28;19911;-29
2023/07/26 04:32:46;;;;;;;;;;;14.50;74.30;;;;;;5112528;28;19909;-30
2023/07/26 04:35:11;;;;;;;;;;;14.50;74.20;;;;;;5112647;28;19907;-31
2023/07/26 04:37:37;;;;;;;;;;;14.50;74.20;;;;;;5112581;28;19912;-31
2023/07/26 04:40:03;;;;;;;;;;;14.60;74.20;;;;;;5112869;28;19915;-38
2023/07/26 04:42:28;;;;;;;;;;;14.60;74.20;;;;;;5112455;28;20287;-32
2023/07/26 04:44:53;;;;;;;;;;;14.60;74.20;;;;;;5112371;28;19922;-31
2023/07/26 04:47:22;;;;;;;;;;;14.60;74.20;;;;;;5112178;28;19950;-29
2023/07/26 04:49:48;;;;;;;;;;;14.60;74.20;;;;;;5112181;28;20007;-28
2023/07/26 04:52:13;;;;;;;;;;;14.70;74.30;;;;;;5112579;28;20433;-31
2023/07/26 04:54:39;;;;;;;;;;;14.60;74.30;;;;;;5112778;28;20290;-29
2023/07/26 04:57:04;;;;;;;;;;;14.60;74.30;;;;;;5112249;28;19915;-33
2023/07/26 04:59:30;;;;;;;;;;;14.70;74.40;;;;;;5112238;28;20352;-31
2023/07/26 05:01:55;;;;;;;;;;;14.60;74.30;;;;;;5112570;28;20309;-31
2023/07/26 05:04:21;;;;;;;;;;;14.70;74.30;;;;;;5112210;28;19934;-35
2023/07/26 05:06:46;;;;;;;;;;;14.70;74.30;;;;;;5112559;28;20002;-35
2023/07/26 05:09:12;;;;;;;;;;;14.70;74.20;;;;;;5112273;28;20282;-30
2023/07/26 05:11:37;;;;;;;;;;;14.80;74.20;;;;;;5112225;28;19914;-31
2023/07/26 05:14:02;;;;;;;;;;;14.80;74.20;;;;;;5112195;28;19914;-32
2023/07/26 05:16:28;;;;;;;;;;;14.80;74.10;;;;;;5112283;28;19934;-29
2023/07/26 05:18:57;;;;;;;;;;;14.90;74.10;;;;;;5112508;28;20219;-30
2023/07/26 05:21:23;;;;;;;;;;;14.90;74.00;;;;;;5112097;28;19912;-32
2023/07/26 05:23:49;;;;;;;;;;;15.00;74.00;;;;;;5112192;28;19908;-29
2023/07/26 05:26:14;;;;;;;;;;;15.00;73.90;;;;;;5112227;28;20011;-32
2023/07/26 05:28:40;;;;;;;;;;;15.10;74.40;;;;;;5112129;28;20429;-28
2023/07/26 05:31:05;;;;;;;;;;;15.20;73.80;;;;;;5112049;28;19908;-29
2023/07/26 05:33:31;;;;;;;;;;;15.20;73.70;;;;;;5112040;28;20279;-32
2023/07/26 05:35:56;;;;;;;;;;;15.20;73.70;;;;;;5112027;28;19908;-32
2023/07/26 05:38:21;;;;;;;;;;;15.30;73.70;;;;;;5112124;28;19956;-32
2023/07/26 05:40:47;;;;;;;;;;;15.30;73.60;;;;;;5111990;28;19922;-32
2023/07/26 05:43:12;;;;;;;;;;;15.30;73.60;;;;;;5111944;28;19912;-31
2023/07/26 05:45:40;;;;;;;;;;;15.30;73.60;;;;;;5115420;28;19941;-30
2023/07/26 05:48:05;;;;;;;;;;;15.30;73.50;;;;;;5115660;28;19930;-31
2023/07/26 05:50:31;;;;;;;;;;;15.40;73.60;;;;;;5115661;28;20006;-34
2023/07/26 05:52:56;;;;;;;;;;;15.40;73.60;;;;;;5115677;28;20377;-31
2023/07/26 05:55:22;;;;;;;;;;;15.40;73.60;;;;;;5097239;28;19908;-30
2023/07/26 05:57:47;;;;;;;;;;;15.40;73.60;;;;;;5115676;28;19915;-29
2023/07/26 06:00:13;;;;;;;;;;;15.40;73.60;;;;;;5115572;28;20373;-29
2023/07/26 06:02:39;;;;;;;;;;;15.40;73.60;;;;;;5115593;28;20103;-32
2023/07/26 06:05:05;;;;;;;;;;;15.50;73.70;;;;;;5115371;28;19957;-29
2023/07/26 06:07:31;;;;;;;;;;;15.50;73.60;;;;;;5115784;28;19969;-30
2023/07/26 06:09:56;;;;;;;;;;;15.60;73.60;;;;;;5115407;28;19908;-32
2023/07/26 06:12:22;;;;;;;;;;;15.60;73.50;;;;;;5115419;28;20272;-33
2023/07/26 06:14:47;;;;;;;;;;;15.70;73.40;;;;;;5115588;28;20286;-29
2023/07/26 06:17:13;;;;;;;;;;;15.80;73.20;;;;;;5115235;28;19933;-29
2023/07/26 06:19:38;;;;;;;;;;;15.90;73.10;;;;;;5115304;28;19965;-31
2023/07/26 06:22:05;;;;;;;;;;;16.10;72.90;;;;;;5115422;28;19994;-35
2023/07/26 06:24:30;;;;;;;;;;;16.20;72.80;;;;;;5115007;28;19946;-30
2023/07/26 06:26:56;;;;;;;;;;;16.30;72.70;;;;;;5114931;28;20064;-31
2023/07/26 06:29:21;;;;;;;;;;;16.40;73.10;;;;;;5096735;28;20343;-29
2023/07/26 06:31:47;;;;;;;;;;;16.60;72.40;;;;;;5115251;28;20472;-29
2023/07/26 06:34:13;;;;;;;;;;;16.70;72.20;;;;;;5114883;28;20360;-30
2023/07/26 06:36:38;;;;;;;;;;;16.70;72.10;;;;;;5114729;28;19912;-31
2023/07/26 06:39:04;;;;;;;;;;;16.80;72.20;;;;;;5115303;28;19908;-31
2023/07/26 06:41:29;;;;;;;;;;;16.80;72.30;;;;;;5114605;28;19960;-29
2023/07/26 06:43:55;;;;;;;;;;;16.80;72.20;;;;;;5114798;28;19911;-30
2023/07/26 06:46:20;;;;;;;;;;;16.80;72.20;;;;;;5114559;28;19968;-30
2023/07/26 06:48:46;;;;;;;;;;;16.90;72.30;;;;;;5114716;28;19920;-31
2023/07/26 06:51:11;;;;;;;;;;;16.90;72.20;;;;;;5114536;28;20286;-29
2023/07/26 06:53:37;;;;;;;;;;;16.90;72.20;;;;;;5114797;28;19908;-31
2023/07/26 06:56:03;;;;;;;;;;;16.90;72.20;;;;;;5113836;28;19907;-28
2023/07/26 06:58:28;;;;;;;;;;;17.00;72.30;;;;;;5114613;28;19942;-31
2023/07/26 07:00:54;;;;;;;;;;;17.00;72.30;;;;;;5114738;28;19931;-29
2023/07/26 07:03:20;;;;;;;;;;;17.00;72.40;;;;;;5114171;28;19908;-28
2023/07/26 07:05:46;;;;;;;;;;;17.00;72.40;;;;;;5114087;28;19908;-30
2023/07/26 07:08:11;;;;;;;;;;;17.00;72.40;;;;;;5114187;28;20006;-30
2023/07/26 07:10:37;;;;;;;;;;;17.00;72.40;;;;;;5114432;28;19957;-28
2023/07/26 07:13:02;;;;;;;;;;;17.00;72.50;;;;;;5114440;28;20377;-28
2023/07/26 07:15:28;;;;;;;;;;;17.10;72.90;;;;;;5095822;28;19914;-33
2023/07/26 07:17:53;;;;;;;;;;;17.00;72.80;;;;;;5114023;28;20238;-29
2023/07/26 07:20:19;;;;;;;;;;;16.90;72.80;;;;;;5114022;28;19908;-34
2023/07/26 07:22:45;;;;;;;;;;;16.80;73.10;;;;;;5095593;28;19915;-31
2023/07/26 07:25:10;;;;;;;;;;;16.70;73.40;;;;;;5113719;28;20260;-29
2023/07/26 07:27:36;;;;;;;;;;;16.70;73.40;;;;;;5113715;28;19912;-29
2023/07/26 07:30:02;;;;;;;;;;;16.60;73.70;;;;;;5113677;28;19908;-29
2023/07/26 07:32:27;;;;;;;;;;;16.50;73.90;;;;;;5113802;28;19908;-30
2023/07/26 07:34:53;;;;;;;;;;;16.40;74.00;;;;;;5113488;28;19943;-29
2023/07/26 07:37:19;;;;;;;;;;;16.30;74.60;;;;;;5113357;28;19998;-30
2023/07/26 07:39:45;;;;;;;;;;;16.20;75.30;;;;;;5113574;28;19908;-32
2023/07/26 07:42:10;;;;;;;;;;;16.00;75.60;;;;;;5113609;28;19935;-29
2023/07/26 07:44:36;;;;;;;;;;;15.80;76.20;;;;;;5113117;28;19960;-32
2023/07/26 07:47:02;;;;;;;;;;;15.70;76.50;;;;;;5112741;28;19919;-28
2023/07/26 07:49:28;;;;;;;;;;;15.50;77.20;;;;;;5112959;28;19919;-30
2023/07/26 07:51:53;;;;;;;;;;;15.30;78.00;;;;;;5113216;28;19911;-27
2023/07/26 07:54:19;;;;;;;;;;;15.20;77.90;;;;;;5113349;28;19912;-31
2023/07/26 07:56:45;;;;;;;;;;;15.00;78.20;;;;;;5113094;28;19912;-29
2023/07/26 07:59:11;;;;;;;;;;;14.90;78.20;;;;;;5113119;28;19959;-29
2023/07/26 08:01:37;;;;;;;;;;;14.80;78.30;;;;;;5112777;28;19952;-29
2023/07/26 08:04:03;;;;;;;;;;;14.80;78.40;;;;;;5112772;28;19912;-28
2023/07/26 08:06:29;;;;;;;;;;;14.80;78.40;;;;;;5112216;28;19920;-28
2023/07/26 08:08:55;;;;;;;;;;;14.80;78.50;;;;;;5113094;28;20007;-28
2023/07/26 08:11:21;;;;;;;;;;;14.80;78.40;;;;;;5113030;28;19964;-29
2023/07/26 08:13:46;;;;;;;;;;;14.80;78.40;;;;;;5112725;28;20001;-33
2023/07/26 08:16:12;;;;;;;;;;;14.90;78.40;;;;;;5112938;28;20268;-32
2023/07/26 08:18:38;;;;;;;;;;;15.00;78.40;;;;;;5112482;28;19919;-29
2023/07/26 08:21:03;;;;;;;;;;;15.10;78.30;;;;;;5112774;28;19912;-28
2023/07/26 08:23:32;;;;;;;;;;;15.10;78.20;;;;;;5112501;28;19912;-28
2023/07/26 08:26:03;;;;;;;;;;;15.10;78.20;;;;;;5112643;28;19912;-35
2023/07/26 08:28:29;;;;;;;;;;;15.20;78.20;;;;;;5112752;28;19911;-32
2023/07/26 08:30:54;;;;;;;;;;;15.20;78.10;;;;;;5094204;28;19911;-28
2023/07/26 08:33:20;;;;;;;;;;;15.20;78.00;;;;;;5112520;28;19912;-30
2023/07/26 08:35:45;;;;;;;;;;;15.30;78.00;;;;;;5112561;28;19918;-28
2023/07/26 08:38:11;;;;;;;;;;;15.30;77.90;;;;;;5112729;28;19911;-29
2023/07/26 08:40:40;;;;;;;;;;;15.40;77.90;;;;;;5112674;28;19919;-29
2023/07/26 08:43:07;;;;;;;;;;;15.50;77.70;;;;;;5112405;28;20353;-30
2023/07/26 08:45:32;;;;;;;;;;;15.50;77.70;;;;;;5112230;28;20046;-28
2023/07/26 08:47:58;;;;;;;;;;;15.60;77.70;;;;;;5112065;28;20006;-30
2023/07/26 08:50:24;;;;;;;;;;;15.60;77.50;;;;;;5112636;28;20011;-28
2023/07/26 08:52:50;;;;;;;;;;;15.70;77.50;;;;;;5112362;28;19992;-28
2023/07/26 08:55:16;;;;;;;;;;;15.80;77.50;;;;;;5112392;28;19918;-29
2023/07/26 08:57:42;;;;;;;;;;;15.80;77.50;;;;;;5112308;28;19919;-28
2023/07/26 09:00:11;;;;;;;;;;;15.90;77.30;;;;;;5112459;28;19919;-29
2023/07/26 09:02:37;;;;;;;;;;;16.00;77.20;;;;;;5112521;28;20368;-29
2023/07/26 09:05:03;;;;;;;;;;;16.00;77.30;;;;;;5112162;28;19912;-32
2023/07/26 09:07:29;;;;;;;;;;;16.10;77.40;;;;;;5112075;28;19923;-29
2023/07/26 09:09:54;;;;;;;;;;;16.20;77.20;;;;;;5112590;28;20317;-37
2023/07/26 09:12:23;;;;;;;;;;;16.20;77.20;;;;;;5112240;28;19911;-31
2023/07/26 09:14:52;;;;;;;;;;;16.20;77.50;;;;;;5112298;28;19914;-29
2023/07/26 09:17:17;;;;;;;;;;;16.20;77.30;;;;;;5112175;28;19915;-31
2023/07/26 09:19:42;;;;;;;;;;;16.30;77.30;;;;;;5116370;28;20359;-36
2023/07/26 09:22:08;;;;;;;;;;;16.40;77.10;;;;;;5116359;28;19915;-35
2023/07/26 09:24:34;;;;;;;;;;;16.50;77.20;;;;;;5115928;28;20381;-38
2023/07/26 09:27:04;;;;;;;;;;;16.50;77.00;;;;;;5116104;28;20386;-34
2023/07/26 09:29:29;;;;;;;;;;;16.50;77.20;;;;;;5116028;28;19908;-42
2023/07/26 09:31:55;;;;;;;;;;;16.60;77.10;;;;;;5116132;28;19931;-38
2023/07/26 09:34:20;;;;;;;;;;;16.70;77.00;;;;;;5116075;28;20409;-29
2023/07/26 09:36:50;;;;;;;;;;;16.80;77.10;;;;;;5116084;28;20402;-29
2023/07/26 09:39:19;;;;;;;;;;;16.80;76.80;;;;;;5116620;28;19947;-29
2023/07/26 09:41:45;;;;;;;;;;;16.90;76.80;;;;;;5116106;28;19950;-30
2023/07/26 09:44:18;;;;;;;;;;;17.00;76.60;;;;;;5115907;28;19958;-36
2023/07/26 09:46:50;;;;;;;;;;;17.00;76.60;;;;;;5115543;28;20324;-30
2023/07/26 09:49:19;;;;;;;;;;;17.00;76.60;;;;;;5115887;28;20280;-35
2023/07/26 09:51:45;;;;;;;;;;;17.10;76.60;;;;;;5115865;28;19920;-35
2023/07/26 09:54:11;;;;;;;;;;;17.20;76.40;;;;;;5116196;28;19911;-33
2023/07/26 09:56:38;;;;;;;;;;;17.40;76.30;;;;;;5097459;28;19908;-29
2023/07/26 09:59:07;;;;;;;;;;;17.60;76.10;;;;;;5116092;28;19912;-32
2023/07/26 10:01:33;;;;;;;;;;;17.80;75.60;;;;;;5115457;28;19915;-37
2023/07/26 10:04:00;;;;;;;;;;;17.80;75.50;;;;;;5115488;28;19922;-31
2023/07/26 10:06:26;;;;;;;;;;;18.00;75.30;;;;;;5115089;28;19960;-32
2023/07/26 10:08:53;;;;;;;;;;;18.10;75.20;;;;;;5115137;28;19908;-30
2023/07/26 10:11:21;;;;;;;;;;;18.30;75.00;;;;;;5115284;28;20391;-31
2023/07/26 10:13:47;;;;;;;;;;;18.40;74.10;;;;;;5115730;28;19918;-33
2023/07/26 10:16:12;;;;;;;;;;;18.50;73.70;;;;;;5115702;28;19908;-30
2023/07/26 10:18:39;;;;;;;;;;;18.70;73.70;;;;;;5115684;28;19914;-31
2023/07/26 10:21:04;;;;;;;;;;;18.80;73.60;;;;;;5115281;28;19908;-30
2023/07/26 10:23:30;;;;;;;;;;;18.90;73.60;;;;;;5115153;28;20002;-31
2023/07/26 10:25:56;;;;;;;;;;;18.80;73.30;;;;;;5115037;28;19915;-30
2023/07/26 10:28:22;;;;;;;;;;;18.80;72.80;;;;;;5114879;28;20372;-30
2023/07/26 10:30:49;;;;;;;;;;;18.50;73.70;;;;;;5113995;28;20007;-28
2023/07/26 10:33:15;;;;;;;;;;;18.00;74.20;;;;;;5114798;28;19908;-27
2023/07/26 10:35:42;;;;;;;;;;;17.50;75.40;;;;;;5114463;28;19915;-33
2023/07/26 10:38:07;;;;;;;;;;;17.10;76.60;;;;;;5096209;28;19961;-28
2023/07/26 10:40:37;;;;;;;;;;;16.80;77.30;;;;;;5114534;28;19907;-42
2023/07/26 10:43:35;;;;;;;;;;;16.60;77.60;;;;;;5114430;28;20369;-27
2023/07/26 10:46:06;;;;;;;;;;;16.50;77.80;;;;;;5040640;28;19912;-29
2023/07/26 10:48:36;;;;;;;;;;;16.50;78.00;;;;;;5114100;28;20389;-29
2023/07/26 10:51:21;;;;;;;;;;;16.40;78.40;;;;;;5095939;28;19961;-29
2023/07/26 10:53:46;;;;;;;;;;;16.40;78.80;;;;;;5114072;28;20391;-27
2023/07/26 10:56:18;;;;;;;;;;;16.50;78.30;;;;;;5114206;28;19908;-30
2023/07/26 10:58:58;;;;;;;;;;;16.70;78.20;;;;;;5114144;28;19943;-29
2023/07/26 11:01:37;;;;;;;;;;;16.70;78.10;;;;;;5114004;28;20298;-29
2023/07/26 11:04:08;;;;;;;;;;;16.70;78.00;;;;;;5113882;28;19978;-31
2023/07/26 11:06:49;;;;;;;;;;;16.80;78.00;;;;;;5113873;28;19918;-29
2023/07/26 11:09:24;;;;;;;;;;;16.90;78.30;;;;;;5113948;28;20384;-28
2023/07/26 11:11:53;;;;;;;;;;;17.10;78.00;;;;;;5113991;28;19947;-30
2023/07/26 11:14:18;;;;;;;;;;;17.30;77.80;;;;;;5113916;28;19908;-30
2023/07/26 11:16:44;;;;;;;;;;;17.50;77.80;;;;;;5113832;28;19957;-28
2023/07/26 11:19:09;;;;;;;;;;;17.80;78.00;;;;;;5113929;28;19908;-29
2023/07/26 11:21:35;;;;;;;;;;;18.00;76.90;;;;;;5113795;28;20365;-31
2023/07/26 11:24:01;;;;;;;;;;;18.20;76.60;;;;;;5113676;28;19911;-30
2023/07/26 11:26:27;;;;;;;;;;;18.30;76.30;;;;;;5113642;28;19912;-28
2023/07/26 11:28:57;;;;;;;;;;;18.40;76.20;;;;;;5113660;28;19908;-30
2023/07/26 11:31:22;;;;;;;;;;;18.40;76.20;;;;;;5113586;28;19994;-29
2023/07/26 11:33:48;;;;;;;;;;;18.40;76.20;;;;;;5113673;28;19970;-28
2023/07/26 11:36:20;;;;;;;;;;;18.50;76.10;;;;;;5113430;28;19911;-30
2023/07/26 11:38:48;;;;;;;;;;;18.50;76.00;;;;;;5113460;28;20367;-29
2023/07/26 11:41:19;;;;;;;;;;;18.60;75.90;;;;;;5113511;28;19956;-31
2023/07/26 11:43:45;;;;;;;;;;;18.70;75.70;;;;;;5113262;28;19908;-29
2023/07/26 11:46:10;;;;;;;;;;;18.70;75.70;;;;;;5113181;28;19980;-28
2023/07/26 11:48:36;;;;;;;;;;;18.70;75.80;;;;;;5113153;28;20348;-29
2023/07/26 11:51:03;;;;;;;;;;;18.70;75.80;;;;;;5113494;28;20448;-29
2023/07/26 11:53:29;;;;;;;;;;;18.70;75.90;;;;;;5113400;28;19968;-31
2023/07/26 11:55:55;;;;;;;;;;;18.60;76.60;;;;;;5113545;28;20437;-27
2023/07/26 11:58:22;;;;;;;;;;;18.50;76.10;;;;;;5112993;28;20455;-29
2023/07/26 12:00:48;;;;;;;;;;;18.50;76.20;;;;;;5113364;28;19915;-30
2023/07/26 12:03:13;;;;;;;;;;;18.70;76.10;;;;;;5113151;28;20406;-31
2023/07/26 12:05:44;;;;;;;;;;;18.90;75.70;;;;;;5113203;28;19957;-28
2023/07/26 12:08:10;;;;;;;;;;;19.10;74.60;;;;;;5113147;28;19912;-29
2023/07/26 12:10:37;;;;;;;;;;;19.20;74.60;;;;;;5113240;28;19908;-30
2023/07/26 12:13:08;;;;;;;;;;;19.20;74.30;;;;;;5113066;28;19955;-29
2023/07/26 12:15:52;;;;;;;;;;;19.20;74.10;;;;;;5112777;28;19908;-29
2023/07/26 12:18:18;;;;;;;;;;;19.10;74.00;;;;;;5113026;28;19907;-29
2023/07/26 12:21:00;;;;;;;;;;;19.00;74.00;;;;;;5113350;28;19912;-29
2023/07/26 12:23:26;;;;;;;;;;;19.00;74.10;;;;;;5112821;28;19962;-29
2023/07/26 12:25:59;;;;;;;;;;;18.90;73.20;;;;;;5112741;28;19911;-28
2023/07/26 12:28:25;;;;;;;;;;;18.90;72.90;;;;;;5112690;28;20367;-30
2023/07/26 12:30:55;;;;;;;;;;;19.00;73.20;;;;;;5112863;28;20007;-32
2023/07/26 12:33:21;;;;;;;;;;;19.00;73.00;;;;;;5094610;28;19911;-27
2023/07/26 12:35:46;;;;;;;;;;;19.10;72.80;;;;;;5112816;28;19915;-28
2023/07/26 12:38:13;;;;;;;;;;;19.30;72.50;;;;;;5094205;28;19907;-28
2023/07/26 12:40:39;;;;;;;;;;;19.50;72.40;;;;;;5112463;28;19911;-29
2023/07/26 12:43:24;;;;;;;;;;;19.60;72.00;;;;;;5112627;28;19929;-29
2023/07/26 12:45:50;;;;;;;;;;;19.80;71.40;;;;;;5112589;28;20006;-29
2023/07/26 12:48:16;;;;;;;;;;;19.90;70.60;;;;;;5094248;28;19979;-28
2023/07/26 12:50:42;;;;;;;;;;;19.90;69.70;;;;;;5112522;28;20367;-28
2023/07/26 12:53:08;;;;;;;;;;;20.00;69.70;;;;;;5115842;28;19918;-30
2023/07/26 12:55:34;;;;;;;;;;;20.10;69.10;;;;;;5119489;28;19912;-33
2023/07/26 12:57:59;;;;;;;;;;;20.30;69.10;;;;;;5119284;28;20431;-34
2023/07/26 13:00:25;;;;;;;;;;;20.40;67.80;;;;;;5119286;28;19957;-27
2023/07/26 13:02:51;;;;;;;;;;;20.60;67.00;;;;;;5119518;28;19916;-28
2023/07/26 13:05:18;;;;;;;;;;;20.60;67.40;;;;;;5119295;28;20282;-27
2023/07/26 13:07:47;;;;;;;;;;;20.80;67.00;;;;;;5119132;28;19924;-27
2023/07/26 13:10:13;;;;;;;;;;;20.80;65.90;;;;;;5100775;28;19911;-26
2023/07/26 13:12:38;;;;;;;;;;;20.70;66.60;;;;;;5119180;28;19916;-29
2023/07/26 13:15:04;;;;;;;;;;;20.70;66.60;;;;;;5119092;28;19912;-26
2023/07/26 13:17:30;;;;;;;;;;;20.70;65.70;;;;;;5119241;28;19919;-26
2023/07/26 13:19:55;;;;;;;;;;;20.80;66.30;;;;;;5119493;28;19911;-26
2023/07/26 13:22:21;;;;;;;;;;;20.90;65.70;;;;;;5119137;28;20060;-31
2023/07/26 13:24:46;;;;;;;;;;;21.10;64.70;;;;;;5119312;28;20060;-27
2023/07/26 13:27:12;;;;;;;;;;;21.20;64.80;;;;;;5119414;28;20379;-27
2023/07/26 13:29:37;;;;;;;;;;;21.30;64.70;;;;;;5119482;28;19912;-26
2023/07/26 13:32:03;;;;;;;;;;;21.20;64.00;;;;;;5119115;28;19911;-28
2023/07/26 13:34:28;;;;;;;;;;;21.10;64.40;;;;;;5100657;28;19911;-29
2023/07/26 13:36:54;;;;;;;;;;;21.00;64.60;;;;;;5118899;28;19916;-28
2023/07/26 13:39:20;;;;;;;;;;;20.90;64.60;;;;;;5119051;28;20321;-27
2023/07/26 13:41:45;;;;;;;;;;;20.80;63.70;;;;;;5119322;28;19911;-27
2023/07/26 13:44:11;;;;;;;;;;;20.60;64.50;;;;;;5119047;28;19972;-26
2023/07/26 13:46:36;;;;;;;;;;;20.50;65.20;;;;;;5119081;28;19973;-26
2023/07/26 13:49:03;;;;;;;;;;;20.50;64.90;;;;;;5118745;28;19926;-28
2023/07/26 13:51:28;;;;;;;;;;;20.50;64.80;;;;;;5119023;28;20361;-27
2023/07/26 13:53:54;;;;;;;;;;;20.50;65.00;;;;;;5118779;28;19915;-26
2023/07/26 13:56:19;;;;;;;;;;;20.50;64.60;;;;;;5118839;28;19971;-26
2023/07/26 13:58:45;;;;;;;;;;;20.50;64.60;;;;;;5119129;28;19912;-28
2023/07/26 14:01:10;;;;;;;;;;;20.70;64.50;;;;;;5118979;28;19915;-28
2023/07/26 14:03:36;;;;;;;;;;;20.90;62.00;;;;;;5118383;28;19916;-26
2023/07/26 14:06:01;;;;;;;;;;;21.10;62.00;;;;;;5115293;28;20425;-26
2023/07/26 14:08:27;;;;;;;;;;;21.40;62.40;;;;;;5097807;28;19916;-26
2023/07/26 14:10:52;;;;;;;;;;;21.60;61.70;;;;;;5116465;28;19912;-27